Time;durP1;ratioP1;P1;durP2;ratioP2;P2;SDS_P1;SDS_P2;PMS_P1;PMS_P2;Temp;Humidity;BMP_temperature;BMP_pressure;BME280_temperature;BME280_humidity;BME280_pressure;Samples;Min_cycle;Max_cycle;Signal;HPM_P1;HPM_P2
2022/10/18 00:00:44;;;;;;;20.23;10.50;;;;;;;8.50;100.00;101075.89;1732534;82;21114;-66
2022/10/18 00:03:10;;;;;;;18.65;10.58;;;;;;;8.47;100.00;101071.72;1738662;82;20987;-66
2022/10/18 00:05:37;;;;;;;17.85;9.75;;;;;;;8.44;100.00;101067.27;1728125;82;20999;-66
2022/10/18 00:08:04;;;;;;;18.23;10.45;;;;;;;8.39;100.00;101067.97;1736261;82;21330;-66
2022/10/18 00:10:31;;;;;;;17.15;9.40;;;;;;;8.39;100.00;101067.97;1735878;82;21537;-66
2022/10/18 00:12:59;;;;;;;18.23;10.53;;;;;;;8.42;100.00;101056.66;1739175;82;21014;-66
2022/10/18 00:15:25;;;;;;;17.82;10.68;;;;;;;8.43;100.00;101056.94;1728064;82;21051;-66
2022/10/18 00:17:53;;;;;;;19.40;11.25;;;;;;;8.39;100.00;101057.11;1737082;82;21024;-67
2022/10/18 00:20:19;;;;;;;16.02;10.03;;;;;;;8.35;100.00;101051.83;1724086;82;21012;-66
2022/10/18 00:22:47;;;;;;;17.45;10.70;;;;;;;8.32;100.00;101047.37;1718030;82;20936;-66
2022/10/18 00:25:13;;;;;;;19.12;11.95;;;;;;;8.28;100.00;101042.94;1719868;82;21034;-66
2022/10/18 00:27:40;;;;;;;21.50;11.83;;;;;;;8.26;100.00;101042.28;1716901;82;21040;-66
2022/10/18 00:30:07;;;;;;;18.25;11.12;;;;;;;8.26;100.00;101044.16;1715040;82;21043;-66
2022/10/18 00:32:40;;;;;;;19.65;11.50;;;;;;;8.30;100.00;101042.69;1724656;82;21487;-66
2022/10/18 00:35:07;;;;;;;22.00;11.68;;;;;;;8.30;100.00;101046.23;1726458;81;21013;-66
2022/10/18 00:37:34;;;;;;;21.57;10.82;;;;;;;8.26;100.00;101044.16;1721948;82;20960;-66
2022/10/18 00:40:00;;;;;;;;;;;;;;;8.23;100.00;101041.38;1725196;82;21067;-66
2022/10/18 00:42:31;;;;;;;24.95;11.93;;;;;;;8.20;100.00;101044.55;1720245;82;20415;-67
2022/10/18 00:45:14;;;;;;;24.50;11.95;;;;;;;8.09;100.00;101042.56;1717621;82;20968;-66
2022/10/18 00:47:43;;;;;;;21.10;10.90;;;;;;;8.12;100.00;101046.70;1727872;82;20972;-66
2022/10/18 00:50:09;;;;;;;20.75;11.40;;;;;;;8.16;100.00;101039.78;1725658;82;21409;-66
2022/10/18 00:52:41;;;;;;;22.37;11.38;;;;;;;8.17;100.00;101031.95;1716166;82;21448;-66
2022/10/18 00:55:08;;;;;;;19.67;11.30;;;;;;;8.13;100.00;101032.09;1733162;82;21043;-66
2022/10/18 00:57:35;;;;;;;22.15;11.57;;;;;;;8.10;100.00;101032.03;1731252;82;20953;-66
2022/10/18 01:00:06;;;;;;;19.77;10.93;;;;;;;8.08;100.00;101031.96;1714764;82;21577;-66
2022/10/18 01:02:31;;;;;;;20.05;11.35;;;;;;;8.03;100.00;101031.27;1731531;82;21443;-67
2022/10/18 01:04:57;;;;;;;;;;;;;;;7.98;100.00;101033.80;1733419;78;68350;-79
2022/10/18 01:07:46;;;;;;;;;;;;;;;7.97;100.00;101037.59;1732340;81;20145;-80
2022/10/18 01:10:48;;;;;;;18.00;10.40;;;;;;;7.94;100.00;101038.02;1697063;82;20149;-80
2022/10/18 01:13:42;;;;;;;20.82;10.88;;;;;;;7.90;100.00;101033.56;1661714;84;21083;-78
2022/10/18 01:16:40;;;;;;;23.85;10.80;;;;;;;7.90;100.00;101019.20;1719316;80;21430;-78
2022/10/18 01:19:34;;;;;;;18.15;10.88;;;;;;;7.83;100.00;101016.52;1725655;81;21729;-80
2022/10/18 01:22:24;;;;;;;19.27;10.72;;;;;;;7.78;100.00;101008.77;1725162;82;21082;-79
2022/10/18 01:25:35;;;;;;;21.80;10.88;;;;;;;7.72;100.00;101009.67;1720971;81;21036;-79
2022/10/18 01:28:30;;;;;;;22.70;11.08;;;;;;;7.66;100.00;101013.24;1683612;83;21562;-79
2022/10/18 01:31:17;;;;;;;19.27;10.65;;;;;;;7.65;100.00;101009.70;1721018;81;21058;-79
2022/10/18 01:33:55;;;;;;;17.77;10.58;;;;;;;7.67;100.00;101008.14;1726081;82;20952;-79
2022/10/18 01:36:33;;;;;;;17.25;10.75;;;;;;;7.66;100.00;101010.53;1742286;80;21047;-79
2022/10/18 01:39:02;;;;;;;19.98;10.93;;;;;;;7.61;100.00;101001.73;1740024;82;20999;-79
2022/10/18 01:41:28;;;;;;;20.45;11.60;;;;;;;7.57;100.00;100991.03;1725560;81;21632;-80
2022/10/18 01:43:58;;;;;;;;;;;;;;;7.52;100.00;100984.08;1740738;81;20973;-79
2022/10/18 01:46:25;;;;;;;22.52;11.08;;;;;;;7.51;100.00;100988.66;1696401;83;20143;-80
2022/10/18 01:48:52;;;;;;;23.22;11.80;;;;;;;7.43;100.00;100993.55;1728293;81;20997;-80
2022/10/18 01:51:24;;;;;;;22.20;11.68;;;;;;;7.44;100.00;100987.89;1735547;80;21665;-80
2022/10/18 01:53:51;;;;;;;20.68;10.65;;;;;;;7.50;100.00;100974.83;1741636;80;21022;-81
2022/10/18 01:56:36;;;;;;;;;;;;;;;7.56;100.00;100973.63;1747820;80;21142;-80
2022/10/18 01:59:37;;;;;;;19.80;10.78;;;;;;;7.56;100.00;100974.98;1729018;81;20171;-80
2022/10/18 02:02:31;;;;;;;20.62;11.90;;;;;;;7.45;100.00;100972.47;1737342;80;21113;-79
2022/10/18 02:05:29;;;;;;;19.67;11.83;;;;;;;7.42;100.00;100977.81;1741246;81;21135;-79
2022/10/18 02:08:26;;;;;;;21.55;12.20;;;;;;;7.36;100.00;100966.52;1735411;80;21605;-79
2022/10/18 02:10:58;;;;;;;21.63;12.27;;;;;;;7.32;100.00;100969.36;1740456;82;21447;-79
2022/10/18 02:13:40;;;;;;;21.27;10.93;;;;;;;7.33;100.00;100965.58;1737599;80;21316;-78
2022/10/18 02:16:13;;;;;;;18.73;11.25;;;;;;;7.36;100.00;100967.88;1739549;80;21068;-79
2022/10/18 02:18:51;;;;;;;18.32;11.18;;;;;;;7.36;100.00;100966.52;1737780;81;22250;-79
2022/10/18 02:21:18;;;;;;;23.05;12.05;;;;;;;7.33;100.00;100956.65;1736034;81;21111;-79
2022/10/18 02:23:45;;;;;;;24.90;12.68;;;;;;;7.29;100.00;100958.13;1707930;81;21076;-79
2022/10/18 02:26:13;;;;;;;23.80;11.65;;;;;;;7.26;100.00;100955.31;1729870;80;21074;-79
2022/10/18 02:28:41;;;;;;;19.95;11.33;;;;;;;7.27;100.00;100948.03;1731749;80;21061;-78
2022/10/18 02:31:45;;;;;;;19.73;11.70;;;;;;;7.31;100.00;100950.08;1733136;80;21161;-79
2022/10/18 02:34:25;;;;;;;20.80;11.95;;;;;;;7.32;100.00;100947.69;1738758;81;21082;-79
2022/10/18 02:36:55;;;;;;;25.92;12.07;;;;;;;7.26;100.00;100947.75;1716527;81;21570;-79
2022/10/18 02:39:29;;;;;;;21.35;11.80;;;;;;;7.24;100.00;100950.66;1730179;80;22228;-79
2022/10/18 02:41:56;;;;;;;17.62;10.60;;;;;;;7.22;100.00;100946.52;1755668;80;21589;-79
2022/10/18 02:44:23;;;;;;;19.95;10.90;;;;;;;7.23;100.00;100938.16;1736552;80;21058;-78
2022/10/18 02:46:49;;;;;;;17.32;9.80;;;;;;;7.29;100.00;100943.23;1728448;80;21051;-79
2022/10/18 02:49:16;;;;;;;20.48;10.72;;;;;;;7.29;100.00;100936.47;1737342;80;21103;-79
2022/10/18 02:51:43;;;;;;;17.07;9.70;;;;;;;7.27;100.00;100932.61;1735658;80;21099;-80
2022/10/18 02:54:09;;;;;;;;;;;;;;;7.23;100.00;100931.39;1725046;81;21055;-79
2022/10/18 02:56:35;;;;;;;19.50;10.48;;;;;;;7.20;100.00;100931.83;1725088;80;20124;-80
2022/10/18 02:59:04;;;;;;;20.95;10.18;;;;;;;7.09;100.00;100932.55;1731339;81;21052;-80
2022/10/18 03:01:31;;;;;;;18.37;10.38;;;;;;;7.10;100.00;100923.38;1690923;83;21047;-79
2022/10/18 03:03:58;;;;;;;16.75;10.05;;;;;;;7.15;100.00;100917.31;1738771;80;21475;-79
2022/10/18 03:06:25;;;;;;;19.82;10.28;;;;;;;7.17;100.00;100916.55;1742463;80;21947;-79
2022/10/18 03:08:51;;;;;;;19.70;10.28;;;;;;;7.14;100.00;100910.23;1735396;80;21058;-79
2022/10/18 03:11:18;;;;;;;20.32;9.95;;;;;;;7.12;100.00;100914.50;1740465;80;21075;-79
2022/10/18 03:13:45;;;;;;;17.15;9.20;;;;;;;7.10;100.00;100905.78;1740724;82;22353;-79
2022/10/18 03:16:12;;;;;;;16.67;9.45;;;;;;;7.09;100.00;100903.28;1751351;80;21098;-79
2022/10/18 03:18:41;;;;;;;17.62;9.38;;;;;;;7.11;100.00;100906.09;1748854;80;22389;-78
2022/10/18 03:21:07;;;;;;;17.77;9.50;;;;;;;7.16;100.00;100900.83;1725119;81;21087;-79
2022/10/18 03:23:34;;;;;;;18.65;9.65;;;;;;;7.21;100.00;100900.17;1675276;83;21395;-79
2022/10/18 03:26:02;;;;;;;15.83;9.58;;;;;;;7.22;100.00;100896.42;1736450;80;21165;-79
2022/10/18 03:28:29;;;;;;;19.25;9.45;;;;;;;7.21;100.00;100889.34;1746506;80;20987;-79
2022/10/18 03:31:00;;;;;;;18.92;9.93;;;;;;;7.19;100.00;100888.74;1745243;81;21060;-80
2022/10/18 03:33:27;;;;;;;18.40;9.73;;;;;;;7.17;100.00;100889.47;1745758;80;22314;-80
2022/10/18 03:35:55;;;;;;;18.30;9.65;;;;;;;7.13;100.00;100885.55;1729386;80;21672;-80
2022/10/18 03:38:22;;;;;;;17.50;9.98;;;;;;;7.10;100.00;100887.34;1722313;81;21031;-80
2022/10/18 03:40:48;;;;;;;18.30;9.40;;;;;;;7.12;100.00;100894.19;1725288;80;21669;-81
2022/10/18 03:43:15;;;;;;;;;;;;;;;7.17;100.00;100893.02;1724977;81;21031;-79
2022/10/18 03:45:42;;;;;;;18.15;11.00;;;;;;;7.19;100.00;100894.16;1724773;80;20133;-79
2022/10/18 03:48:09;;;;;;;20.10;10.30;;;;;;;7.10;100.00;100891.41;1710824;82;21564;-79
2022/10/18 03:50:35;;;;;;;14.13;9.48;;;;;;;7.07;100.00;100885.92;1743867;80;21671;-79
2022/10/18 03:53:02;;;;;;;19.70;10.20;;;;;;;7.05;100.00;100885.30;1733557;80;21035;-79
2022/10/18 03:55:30;;;;;;;15.18;9.75;;;;;;;7.01;100.00;100886.26;1742705;82;21013;-78
2022/10/18 03:57:56;;;;;;;18.05;9.50;;;;;;;7.01;100.00;100878.14;1738984;80;20987;-78
2022/10/18 04:00:23;;;;;;;;;;;;;;;7.04;100.00;100874.19;1760043;80;21099;-77
2022/10/18 04:02:49;;;;;;;18.48;10.03;;;;;;;7.04;100.00;100879.59;1741528;80;20110;-78
2022/10/18 04:05:16;;;;;;;18.80;8.90;;;;;;;6.93;100.00;100874.89;1734329;82;21413;-78
2022/10/18 04:07:42;;;;;;;17.87;10.80;;;;;;;6.91;100.00;100880.52;1738660;80;21029;-78
2022/10/18 04:10:10;;;;;;;19.82;10.70;;;;;;;6.89;100.00;100879.09;1747806;80;21024;-79
2022/10/18 04:12:38;;;;;;;16.32;10.68;;;;;;;6.88;100.00;100881.48;1729668;82;21169;-79
2022/10/18 04:15:06;;;;;;;21.35;12.13;;;;;;;6.90;100.00;100883.45;1696352;83;21026;-79
2022/10/18 04:17:34;;;;;;;18.27;11.85;;;;;;;6.97;100.00;100878.30;1731830;81;21034;-78
2022/10/18 04:20:02;;;;;;;18.60;12.18;;;;;;;7.02;100.00;100876.27;1741638;80;20988;-77
2022/10/18 04:22:28;;;;;;;21.17;11.20;;;;;;;7.04;100.00;100868.77;1743890;80;21019;-78
2022/10/18 04:24:55;;;;;;;20.17;12.45;;;;;;;7.03;100.00;100857.63;1736442;80;21868;-79
2022/10/18 04:27:22;;;;;;;23.00;12.07;;;;;;;7.00;100.00;100862.97;1723326;81;21016;-78
2022/10/18 04:29:49;;;;;;;22.02;10.90;;;;;;;6.99;100.00;100852.34;1737659;80;21507;-77
2022/10/18 04:32:15;;;;;;;20.15;11.25;;;;;;;6.98;100.00;100847.45;1745768;80;21003;-77
2022/10/18 04:34:43;;;;;;;18.67;10.43;;;;;;;7.00;100.00;100849.43;1743782;80;21038;-79
2022/10/18 04:37:10;;;;;;;19.42;10.23;;;;;;;7.07;100.00;100851.23;1722123;81;21536;-79
2022/10/18 04:39:38;;;;;;;15.93;10.30;;;;;;;7.09;100.00;100845.90;1749151;80;21280;-79
2022/10/18 04:42:04;;;;;;;;;;;;;;;7.08;100.00;100845.61;1746691;81;21044;-78
2022/10/18 04:44:31;;;;;;;21.07;10.50;;;;;;;7.05;100.00;100850.09;1744198;80;20514;-79
2022/10/18 04:46:58;;;;;;;21.93;10.08;;;;;;;6.98;100.00;100852.03;1744957;80;21094;-79
2022/10/18 04:49:24;;;;;;;17.15;9.53;;;;;;;7.02;100.00;100846.48;1737646;80;20999;-79
2022/10/18 04:51:51;;;;;;;20.90;11.30;;;;;;;7.10;100.00;100848.92;1760218;81;21046;-78
2022/10/18 04:54:17;;;;;;;;;;;;;;;7.13;100.00;100840.34;1742946;81;20999;-78
2022/10/18 04:56:44;;;;;;;17.25;9.83;;;;;;;7.12;100.00;100845.45;1729323;82;20139;-78
2022/10/18 04:59:10;;;;;;;17.02;10.28;;;;;;;7.05;100.00;100840.62;1733536;81;21007;-79
2022/10/18 05:01:38;;;;;;;15.78;9.78;;;;;;;7.07;100.00;100832.28;1736093;80;21123;-79
2022/10/18 05:04:04;;;;;;;18.77;9.65;;;;;;;7.09;100.00;100833.72;1721041;80;21553;-79
2022/10/18 05:06:30;;;;;;;22.37;10.28;;;;;;;7.15;100.00;100832.84;1700343;81;21372;-79
2022/10/18 05:08:57;;;;;;;;;;;;;;;7.22;100.00;100822.78;1725561;81;21094;-77
2022/10/18 05:11:23;;;;;;;18.15;9.55;;;;;;;7.28;100.00;100828.64;1717640;82;20325;-78
2022/10/18 05:13:52;;;;;;;14.47;9.63;;;;;;;7.23;100.00;100826.28;1721181;82;21062;-78
2022/10/18 05:16:19;;;;;;;17.67;10.35;;;;;;;7.25;100.00;100825.03;1723169;81;21078;-78
2022/10/18 05:18:45;;;;;;;17.77;9.95;;;;;;;7.31;100.00;100828.72;1681984;84;20984;-78
2022/10/18 05:21:11;;;;;;;16.95;9.83;;;;;;;7.34;100.00;100820.14;1720944;81;21063;-78
2022/10/18 05:23:40;;;;;;;14.23;9.63;;;;;;;7.41;100.00;100823.08;1735350;81;20958;-78
2022/10/18 05:26:07;;;;;;;17.07;9.83;;;;;;;7.53;100.00;100830.47;1757603;81;21042;-78
2022/10/18 05:28:36;;;;;;;17.98;9.95;;;;;;;7.61;100.00;100826.11;1716407;83;21035;-78
2022/10/18 05:31:07;;;;;;;17.67;9.05;;;;;;;7.67;100.00;100822.48;1736598;82;21066;-78
2022/10/18 05:33:34;;;;;;;18.10;9.90;;;;;;;7.71;100.00;100827.76;1734305;82;21538;-78
2022/10/18 05:36:01;;;;;;;20.40;9.70;;;;;;;7.77;100.00;100822.25;1721483;82;21044;-79
2022/10/18 05:38:29;;;;;;;13.75;8.50;;;;;;;7.84;100.00;100831.66;1725086;81;21561;-79
2022/10/18 05:40:57;;;;;;;15.40;9.60;;;;;;;7.97;100.00;100821.47;1717465;81;21110;-80
2022/10/18 05:43:28;;;;;;;18.17;10.03;;;;;;;8.16;100.00;100821.44;1732514;82;21541;-78
2022/10/18 05:45:54;;;;;;;16.77;9.43;;;;;;;8.35;100.00;100825.80;1743557;82;22323;-78
2022/10/18 05:48:21;;;;;;;18.02;10.03;;;;;;;8.53;100.00;100828.98;1731252;81;21687;-78
2022/10/18 05:50:48;;;;;;;16.57;10.58;;;;;;;8.72;100.00;100829.19;1732992;82;21062;-79
2022/10/18 05:53:14;;;;;;;15.75;9.10;;;;;;;8.95;100.00;100833.31;1723721;82;21070;-78
2022/10/18 05:55:41;;;;;;;;;;;;;;;9.20;100.00;100834.45;1729069;82;21082;-78
2022/10/18 05:58:07;;;;;;;13.80;8.50;;;;;;;9.45;100.00;100831.79;1729510;81;20267;-78
2022/10/18 06:00:34;;;;;;;15.20;8.28;;;;;;;9.62;100.00;100831.88;1721722;81;21046;-78
2022/10/18 06:03:00;;;;;;;16.70;8.03;;;;;;;9.91;100.00;100838.20;1683789;82;21940;-78
2022/10/18 06:05:26;;;;;;;16.85;8.30;;;;;;;10.16;100.00;100834.67;1727975;82;21317;-78
2022/10/18 06:07:55;;;;;;;14.05;8.08;;;;;;;10.44;100.00;100827.86;1736823;81;21067;-81
2022/10/18 06:10:22;;;;;;;14.53;7.70;;;;;;;10.68;100.00;100820.37;1712787;82;21558;-81
2022/10/18 06:12:49;;;;;;;16.20;8.38;;;;;;;10.91;100.00;100824.30;1685970;81;21114;-81
2022/10/18 06:15:15;;;;;;;15.72;8.10;;;;;;;11.15;100.00;100829.06;1745526;81;21074;-81
2022/10/18 06:17:42;;;;;;;14.45;8.10;;;;;;;11.39;100.00;100828.31;1733607;81;21623;-81
2022/10/18 06:20:09;;;;;;;15.08;7.67;;;;;;;11.64;100.00;100831.94;1671257;84;21063;-80
2022/10/18 06:22:35;;;;;;;12.78;7.50;;;;;;;11.89;100.00;100821.39;1674433;83;21032;-80
2022/10/18 06:25:02;;;;;;;15.18;7.50;;;;;;;12.13;100.00;100815.11;1691904;84;21052;-79
2022/10/18 06:27:30;;;;;;;14.90;7.60;;;;;;;12.35;100.00;100812.64;1675490;84;21138;-78
2022/10/18 06:29:57;;;;;;;14.87;8.03;;;;;;;12.51;100.00;100799.95;1678166;84;21008;-81
2022/10/18 06:32:23;;;;;;;15.58;8.13;;;;;;;12.66;100.00;100800.63;1647754;85;21660;-80
2022/10/18 06:34:50;;;;;;;12.70;7.53;;;;;;;12.80;100.00;100793.65;1693787;83;21027;-82
2022/10/18 06:37:18;;;;;;;13.32;7.42;;;;;;;12.94;100.00;100794.86;1669976;84;21079;-79
2022/10/18 06:39:45;;;;;;;14.10;7.15;;;;;;;13.09;100.00;100799.11;1697964;83;21074;-80
2022/10/18 06:42:12;;;;;;;13.13;7.40;;;;;;;13.22;100.00;100797.28;1692001;83;21649;-81
2022/10/18 06:44:40;;;;;;;13.38;7.50;;;;;;;13.39;100.00;100795.77;1741265;81;21008;-79
2022/10/18 06:47:06;;;;;;;;;;;;;;;13.58;100.00;100789.28;1704846;82;21463;-80
2022/10/18 06:49:33;;;;;;;11.35;6.90;;;;;;;13.70;100.00;100791.27;1705078;82;20478;-81
2022/10/18 06:52:00;;;;;;;13.30;7.92;;;;;;;13.75;100.00;100785.25;1694075;83;21083;-78
2022/10/18 06:54:26;;;;;;;;;;;;;;;13.92;100.00;100789.97;1683897;84;20983;-79
2022/10/18 06:56:56;;;;;;;15.48;7.42;;;;;;;14.02;100.00;100779.63;1692343;83;20169;-80
2022/10/18 06:59:22;;;;;;;13.28;7.03;;;;;;;14.09;100.00;100774.72;1648389;85;21083;-77
2022/10/18 07:01:49;;;;;;;;;;;;;;;14.20;100.00;100779.13;1695790;83;21085;-81
2022/10/18 07:04:15;;;;;;;13.95;7.17;;;;;;;14.34;100.00;100772.06;1678705;84;20124;-81
2022/10/18 07:06:42;;;;;;;12.95;7.65;;;;;;;14.42;100.00;100774.79;1682771;84;21404;-80
2022/10/18 07:09:09;;;;;;;12.90;7.00;;;;;;;14.59;100.00;100759.48;1750371;81;21038;-80
2022/10/18 07:11:36;;;;;;;12.47;7.70;;;;;;;14.75;100.00;100763.86;1695153;80;21173;-80
2022/10/18 07:14:03;;;;;;;;;;;;;;;14.93;100.00;100765.50;1732689;80;21057;-77
2022/10/18 07:16:32;;;;;;;15.23;7.42;;;;;;;15.12;100.00;100763.56;1720381;83;20124;-77
2022/10/18 07:18:58;;;;;;;13.35;7.25;;;;;;;15.22;100.00;100760.80;1739767;82;22278;-79
2022/10/18 07:21:26;;;;;;;12.30;7.28;;;;;;;15.36;100.00;100756.38;1741420;82;21068;-80
2022/10/18 07:23:52;;;;;;;;;;;;;;;15.47;100.00;100762.66;1753233;82;20987;-79
2022/10/18 07:26:24;;;;;;;12.95;7.47;;;;;;;15.57;100.00;100756.61;1744915;82;20970;-77
2022/10/18 07:28:54;;;;;;;14.25;7.62;;;;;;;15.57;100.00;100754.41;1719966;83;21462;-79
2022/10/18 07:31:21;;;;;;;13.00;7.25;;;;;;;15.70;100.00;100750.52;1720646;83;21103;-77
2022/10/18 07:33:48;;;;;;;13.55;7.50;;;;;;;15.79;100.00;100748.02;1721017;83;21150;-77
2022/10/18 07:36:14;;;;;;;14.85;7.40;;;;;;;15.86;100.00;100748.53;1727045;82;21047;-77
2022/10/18 07:38:43;;;;;;;13.55;7.10;;;;;;;15.99;100.00;100742.41;1701599;83;21110;-79
2022/10/18 07:41:11;;;;;;;12.55;6.67;;;;;;;16.10;100.00;100743.17;1723993;82;21599;-77
2022/10/18 07:43:44;;;;;;;12.75;7.70;;;;;;;16.22;100.00;100740.36;1742478;82;21050;-79
2022/10/18 07:46:12;;;;;;;11.33;7.25;;;;;;;16.33;100.00;100739.16;1699815;83;21125;-77
2022/10/18 07:48:38;;;;;;;12.03;6.90;;;;;;;16.44;100.00;100742.66;1656121;86;21547;-77
2022/10/18 07:51:06;;;;;;;11.57;6.47;;;;;;;16.55;100.00;100733.23;1747850;81;21080;-79
2022/10/18 07:53:33;;;;;;;14.07;6.78;;;;;;;16.65;100.00;100730.42;1745622;81;21050;-79
2022/10/18 07:56:01;;;;;;;10.93;5.97;;;;;;;16.76;100.00;100725.11;1693044;84;21110;-78
2022/10/18 07:58:28;;;;;;;11.93;6.87;;;;;;;16.88;100.00;100719.23;1703816;84;21103;-79
2022/10/18 08:00:54;;;;;;;11.95;6.67;;;;;;;16.99;100.00;100718.03;1654187;85;21402;-80
2022/10/18 08:03:22;;;;;;;14.50;7.10;;;;;;;17.07;100.00;100713.28;1733515;82;21089;-81
2022/10/18 08:05:53;;;;;;;12.37;6.42;;;;;;;17.16;100.00;100714.27;1702084;83;21154;-80
2022/10/18 08:08:21;;;;;;;9.28;6.12;;;;;;;17.27;100.00;100711.67;1748237;80;21363;-80
2022/10/18 08:10:47;;;;;;;11.10;6.78;;;;;;;17.41;100.00;100701.60;1757684;80;21048;-81
2022/10/18 08:13:14;;;;;;;9.50;6.03;;;;;;;17.57;100.00;100709.71;1706881;81;21461;-79
2022/10/18 08:15:40;;;;;;;;;;;;;;;17.70;100.00;100700.72;1758089;80;21043;-79
2022/10/18 08:18:08;;;;;;;10.45;5.67;;;;;;;17.78;100.00;100689.84;1717545;83;20114;-78
2022/10/18 08:20:36;;;;;;;11.38;6.15;;;;;;;17.78;100.00;100691.22;1739365;81;21099;-77
2022/10/18 08:23:03;;;;;;;8.23;5.87;;;;;;;17.89;100.00;100685.02;1760342;81;21594;-79
2022/10/18 08:25:30;;;;;;;9.08;5.75;;;;;;;17.98;100.00;100686.55;1756349;80;21038;-77
2022/10/18 08:27:57;;;;;;;10.40;5.95;;;;;;;18.05;100.00;100682.31;1745539;80;21059;-79
2022/10/18 08:30:23;;;;;;;8.85;5.33;;;;;;;18.10;99.47;100681.43;1749494;80;21590;-80
2022/10/18 08:32:51;;;;;;;9.75;5.40;;;;;;;18.16;100.00;100676.09;1746706;80;21897;-79
2022/10/18 08:35:18;;;;;;;10.65;5.75;;;;;;;18.25;100.00;100677.86;1736095;80;21655;-78
2022/10/18 08:37:45;;;;;;;12.20;5.87;;;;;;;18.35;100.00;100672.77;1775828;80;21120;-80
2022/10/18 08:40:13;;;;;;;13.22;5.72;;;;;;;18.46;98.54;100670.66;1750856;80;21106;-77
2022/10/18 08:43:09;;;;;;;7.75;5.15;;;;;;;18.52;96.36;100666.72;1753720;80;21110;-77
2022/10/18 08:45:40;;;;;;;7.90;4.90;;;;;;;18.57;93.40;100665.23;1753529;80;21063;-77
2022/10/18 08:48:07;;;;;;;9.65;5.17;;;;;;;18.62;93.91;100653.58;1740080;81;21397;-79
2022/10/18 08:50:36;;;;;;;9.40;5.20;;;;;;;18.71;94.17;100651.73;1746301;80;21099;-79
2022/10/18 08:53:29;;;;;;;6.92;5.03;;;;;;;18.80;94.98;100649.11;1754363;80;21046;-79
2022/10/18 08:56:13;;;;;;;9.83;5.53;;;;;;;18.89;93.65;100646.72;1751753;80;21093;-78
2022/10/18 08:58:37;;;;;;;8.70;5.47;;;;;;;18.98;93.56;100650.16;1732022;81;21062;-78
2022/10/18 09:01:31;;;;;;;10.18;5.47;;;;;;;19.08;94.00;100640.30;1754608;81;21114;-79
2022/10/18 09:04:17;;;;;;;9.55;5.42;;;;;;;19.15;93.35;100642.91;1756192;80;21146;-78
2022/10/18 09:07:11;;;;;;;12.25;5.40;;;;;;;19.29;95.08;100640.14;1742431;80;21118;-76
2022/10/18 09:10:01;;;;;;;8.33;4.97;;;;;;;19.41;91.06;100635.48;1758642;80;21081;-78
2022/10/18 09:13:14;;;;;;;8.90;5.17;;;;;;;19.46;92.41;100630.69;1746522;80;21083;-77
2022/10/18 09:16:05;;;;;;;8.63;4.87;;;;;;;19.55;92.01;100628.02;1754268;80;21424;-76
2022/10/18 09:18:43;;;;;;;9.00;5.35;;;;;;;19.62;89.53;100616.81;1739098;80;21093;-77
2022/10/18 09:21:33;;;;;;;9.50;5.87;;;;;;;19.67;87.83;100613.09;1746846;81;21046;-80
2022/10/18 09:24:12;;;;;;;9.30;4.85;;;;;;;19.69;87.18;100608.09;1756547;80;21020;-77
2022/10/18 09:26:48;;;;;;;9.40;4.90;;;;;;;19.71;87.08;100603.89;1742935;80;21121;-79
2022/10/18 09:29:36;;;;;;;9.18;5.58;;;;;;;19.78;89.22;100610.36;1730597;80;21887;-79
2022/10/18 09:32:34;;;;;;;10.15;5.25;;;;;;;19.86;88.01;100601.34;1745495;80;21640;-77
2022/10/18 09:35:24;;;;;;;10.25;5.20;;;;;;;19.91;86.93;100599.81;1756378;81;20987;-78
2022/10/18 09:38:00;;;;;;;10.13;5.00;;;;;;;19.98;87.26;100585.00;1757113;81;21104;-78
2022/10/18 09:40:29;;;;;;;8.43;5.00;;;;;;;20.04;85.99;100579.62;1758463;81;21987;-77
2022/10/18 09:43:21;;;;;;;9.93;4.92;;;;;;;20.13;87.76;100579.66;1748708;81;21388;-79
2022/10/18 09:45:47;;;;;;;9.23;5.05;;;;;;;20.21;86.34;100575.59;1682271;84;21090;-77
2022/10/18 09:48:30;;;;;;;11.83;5.08;;;;;;;20.28;86.15;100575.98;1705562;83;21633;-79
2022/10/18 09:51:16;;;;;;;9.48;5.10;;;;;;;20.33;85.06;100558.46;1706151;84;21055;-79
2022/10/18 09:54:10;;;;;;;12.58;4.92;;;;;;;20.38;84.88;100557.48;1694088;84;21628;-75
2022/10/18 09:56:55;;;;;;;12.73;5.17;;;;;;;20.41;84.26;100552.14;1692989;84;21087;-79
2022/10/18 09:59:33;;;;;;;8.85;4.53;;;;;;;20.43;83.15;100547.12;1685313;84;21119;-77
2022/10/18 10:02:00;;;;;;;8.50;5.15;;;;;;;20.43;82.80;100544.92;1688423;84;21087;-78
2022/10/18 10:04:27;;;;;;;8.63;4.70;;;;;;;20.44;81.68;100540.44;1696546;84;21901;-76
2022/10/18 10:06:55;;;;;;;8.88;4.97;;;;;;;20.44;82.13;100537.67;1697359;83;21092;-77
2022/10/18 10:09:30;;;;;;;9.05;4.47;;;;;;;20.45;82.79;100530.20;1681159;84;21035;-79
2022/10/18 10:11:57;;;;;;;7.47;3.85;;;;;;;20.47;81.63;100529.33;1653651;85;21510;-77
2022/10/18 10:14:29;;;;;;;10.53;4.85;;;;;;;20.48;81.55;100530.38;1653623;85;21016;-80
2022/10/18 10:17:05;;;;;;;7.92;3.75;;;;;;;20.51;83.02;100523.41;1685729;84;21508;-76
2022/10/18 10:19:41;;;;;;;7.37;4.10;;;;;;;20.58;82.14;100517.64;1699363;84;21069;-77
2022/10/18 10:22:11;;;;;;;6.97;4.50;;;;;;;20.65;83.08;100518.00;1660885;84;21154;-78
2022/10/18 10:24:49;;;;;;;8.60;4.33;;;;;;;20.74;83.58;100516.66;1688517;84;21689;-76
2022/10/18 10:27:32;;;;;;;9.28;4.62;;;;;;;20.85;83.70;100509.70;1678052;85;21090;-78
2022/10/18 10:30:01;;;;;;;6.47;4.00;;;;;;;20.93;83.09;100502.55;1659076;85;21441;-79
2022/10/18 10:32:31;;;;;;;5.87;3.92;;;;;;;21.05;82.92;100495.80;1647186;86;21598;-77
2022/10/18 10:34:59;;;;;;;11.15;4.40;;;;;;;21.15;80.89;100501.88;1644395;86;21182;-80
2022/10/18 10:37:35;;;;;;;9.45;4.12;;;;;;;21.24;80.75;100488.06;1672230;85;21043;-77
2022/10/18 10:40:24;;;;;;;7.60;4.67;;;;;;;21.25;79.23;100484.98;1693546;84;21073;-76
2022/10/18 10:43:10;;;;;;;7.33;4.35;;;;;;;21.26;80.33;100485.77;1689883;84;21069;-78
2022/10/18 10:45:40;;;;;;;9.38;4.00;;;;;;;21.24;77.60;100479.19;1700718;84;21190;-77
2022/10/18 10:48:15;;;;;;;7.92;4.17;;;;;;;21.24;77.88;100479.75;1679245;84;22341;-77
2022/10/18 10:50:55;;;;;;;6.72;4.58;;;;;;;21.29;79.05;100476.84;1705766;83;21074;-77
2022/10/18 10:53:26;;;;;;;9.78;4.20;;;;;;;21.33;77.69;100461.99;1722621;83;21070;-77
2022/10/18 10:55:53;;;;;;;7.65;4.58;;;;;;;21.37;76.40;100462.16;1719933;83;21935;-78
2022/10/18 10:58:20;;;;;;;7.62;3.92;;;;;;;21.37;75.44;100464.11;1716785;83;21176;-80
2022/10/18 11:00:46;;;;;;;6.08;4.03;;;;;;;21.37;75.34;100455.80;1666024;83;21671;-79
2022/10/18 11:03:17;;;;;;;11.63;4.28;;;;;;;21.33;75.04;100455.07;1717314;83;21066;-77
2022/10/18 11:05:47;;;;;;;7.28;3.70;;;;;;;21.36;76.74;100455.58;1717681;83;21109;-80
2022/10/18 11:08:22;;;;;;;6.17;3.52;;;;;;;21.41;75.95;100454.83;1722803;82;21135;-77
2022/10/18 11:10:53;;;;;;;5.55;3.65;;;;;;;21.49;75.65;100458.17;1673555;85;21172;-77
2022/10/18 11:13:40;;;;;;;4.87;3.40;;;;;;;21.53;74.58;100448.64;1703110;84;21075;-77
2022/10/18 11:16:18;;;;;;;7.20;3.65;;;;;;;21.55;74.00;100437.47;1702260;84;21206;-78
2022/10/18 11:18:47;;;;;;;8.33;3.47;;;;;;;21.56;71.95;100440.48;1701668;84;21605;-77
2022/10/18 11:21:26;;;;;;;9.10;3.80;;;;;;;21.53;71.86;100436.17;1703702;84;21056;-76
2022/10/18 11:23:53;;;;;;;6.85;3.27;;;;;;;21.56;71.79;100438.28;1657184;85;21045;-78
2022/10/18 11:26:42;;;;;;;6.28;3.87;;;;;;;21.54;72.68;100430.29;1719286;82;21043;-80
2022/10/18 11:33:02;;;;;;;5.90;3.50;;;;;;;21.69;73.09;100410.95;1816907;79;22799;-68
2022/10/18 11:36:06;;;;;;;6.67;3.98;;;;;;;21.64;72.44;100413.34;1714140;81;21125;-72
2022/10/18 11:38:53;;;;;;;6.85;3.20;;;;;;;21.69;73.31;100408.19;1732940;83;21490;-68
2022/10/18 11:41:38;;;;;;;5.83;3.77;;;;;;;21.71;71.88;100406.73;1731685;81;21153;-69
2022/10/18 11:44:17;;;;;;;8.63;5.87;;;;;;;21.72;71.83;100397.83;1728709;81;21059;-69